Time;durP1;ratioP1;P1;durP2;ratioP2;P2;SDS_P1;SDS_P2;PMS_P1;PMS_P2;Temp;Humidity;BMP_temperature;BMP_pressure;BME280_temperature;BME280_humidity;BME280_pressure;Samples;Min_cycle;Max_cycle;Signal;HPM_P1;HPM_P2
2022/02/24 00:02:23;;;;;;;75.55;27.33;;;;;;;0.17;66.31;99335.47;5110746;28;20027;-72
2022/02/24 00:04:49;;;;;;;85.05;29.75;;;;;;;0.17;66.60;99331.94;5092434;28;20034;-71
2022/02/24 00:07:14;;;;;;;86.28;29.65;;;;;;;0.18;66.48;99331.75;5109705;28;20027;-71
2022/02/24 00:09:40;;;;;;;69.85;25.63;;;;;;;0.22;66.39;99335.66;5110505;28;20028;-70
2022/02/24 00:12:06;;;;;;;82.40;29.48;;;;;;;0.21;66.85;99322.38;5110298;28;20035;-72
2022/02/24 00:14:32;;;;;;;75.50;28.05;;;;;;;0.18;66.43;99334.44;5109996;28;20468;-70
2022/02/24 00:16:58;;;;;;;70.82;27.48;;;;;;;0.13;66.73;99323.44;5109928;28;20019;-70
2022/02/24 00:19:23;;;;;;;72.80;26.77;;;;;;;0.07;66.64;99326.94;5110275;28;20491;-71
2022/02/24 00:21:48;;;;;;;66.80;25.98;;;;;;;0.04;66.43;99322.78;5109693;28;20051;-70
2022/02/24 00:24:14;;;;;;;67.80;24.45;;;;;;;0.03;66.61;99317.59;5110590;28;20122;-71
2022/02/24 00:26:40;;;;;;;76.28;28.15;;;;;;;0.01;67.06;99325.88;5109713;28;20030;-70
2022/02/24 00:29:05;;;;;;;63.28;23.92;;;;;;;0.01;67.11;99319.69;5109856;28;20059;-69
2022/02/24 00:31:31;;;;;;;65.68;24.35;;;;;;;0.02;66.67;99318.63;5108829;28;20020;-71
2022/02/24 00:33:58;;;;;;;62.53;23.38;;;;;;;-0.01;66.70;99319.91;5109171;28;20020;-71
2022/02/24 00:36:24;;;;;;;62.15;23.52;;;;;;;-0.02;67.05;99313.66;5091481;28;20560;-72
2022/02/24 00:38:49;;;;;;;72.80;25.75;;;;;;;-0.05;66.98;99314.06;5089165;28;20024;-72
2022/02/24 00:41:15;;;;;;;59.53;23.88;;;;;;;-0.08;66.76;99317.16;5108292;28;20073;-72
2022/02/24 00:43:40;;;;;;;63.05;23.38;;;;;;;-0.13;66.72;99306.16;5090316;28;20468;-72
2022/02/24 00:46:06;;;;;;;68.15;25.48;;;;;;;-0.16;66.84;99315.50;5108927;28;20020;-69
2022/02/24 00:48:31;;;;;;;66.43;25.08;;;;;;;-0.18;66.85;99314.03;5108086;28;20463;-71
2022/02/24 00:50:56;;;;;;;62.40;22.98;;;;;;;-0.21;66.73;99309.09;5107191;28;20015;-71
2022/02/24 00:53:22;;;;;;;59.80;23.45;;;;;;;-0.21;67.51;99309.09;5107098;28;20429;-73
2022/02/24 00:55:47;;;;;;;60.20;23.00;;;;;;;-0.23;67.17;99317.34;5106528;28;20039;-73
2022/02/24 00:58:12;;;;;;;55.15;22.25;;;;;;;-0.22;67.44;99318.22;5108155;28;20622;-72
2022/02/24 01:00:38;;;;;;;54.35;23.38;;;;;;;-0.22;67.66;99318.22;5106808;28;20024;-72
2022/02/24 01:03:03;;;;;;;47.80;21.55;;;;;;;-0.23;67.58;99319.25;5108568;28;20102;-72
2022/02/24 01:05:29;;;;;;;49.55;21.15;;;;;;;-0.23;67.63;99325.44;5109153;28;20019;-72
2022/02/24 01:07:54;;;;;;;51.65;20.17;;;;;;;-0.21;67.38;99327.94;5106601;28;20499;-72
2022/02/24 01:10:19;;;;;;;51.97;20.25;;;;;;;-0.21;67.67;99326.06;5108189;28;20023;-72
2022/02/24 01:12:45;;;;;;;58.22;21.83;;;;;;;-0.20;66.95;99322.34;5089442;28;20084;-72
2022/02/24 01:15:12;;;;;;;54.08;19.48;;;;;;;-0.21;67.41;99322.56;5107111;28;20036;-72
2022/02/24 01:17:39;;;;;;;48.75;20.00;;;;;;;-0.22;67.54;99329.81;5107416;28;20027;-72
2022/02/24 01:20:07;;;;;;;51.30;18.83;;;;;;;-0.22;67.75;99323.59;5107504;28;20042;-72
2022/02/24 01:22:33;;;;;;;50.38;18.45;;;;;;;-0.20;68.04;99318.81;5108163;28;20026;-72
2022/02/24 01:24:59;;;;;;;49.28;18.58;;;;;;;-0.18;68.40;99316.72;5107627;28;20110;-72
2022/02/24 01:27:25;;;;;;;54.63;17.60;;;;;;;-0.17;68.51;99316.53;5110367;28;20035;-72
2022/02/24 01:29:50;;;;;;;47.05;18.50;;;;;;;-0.17;68.13;99310.31;5107621;28;20027;-72
2022/02/24 01:32:16;;;;;;;41.40;16.35;;;;;;;-0.18;68.60;99305.94;5111272;28;20031;-72
2022/02/24 01:34:42;;;;;;;51.83;19.80;;;;;;;-0.20;68.00;99308.88;5111647;28;20024;-72
2022/02/24 01:37:07;;;;;;;51.58;19.00;;;;;;;-0.21;68.06;99298.28;5110850;28;20157;-72
2022/02/24 01:39:33;;;;;;;49.47;19.42;;;;;;;-0.24;67.97;99294.13;5111863;28;20019;-72
2022/02/24 01:41:58;;;;;;;53.42;20.08;;;;;;;-0.26;68.29;99295.38;5111628;28;20032;-72
2022/02/24 01:44:24;;;;;;;52.00;19.65;;;;;;;-0.28;68.40;99284.78;5093325;28;20038;-72
2022/02/24 01:46:50;;;;;;;56.40;20.55;;;;;;;-0.32;68.50;99289.78;5111850;28;20024;-72
2022/02/24 01:49:18;;;;;;;49.17;20.85;;;;;;;-0.33;68.62;99282.72;5092366;28;20032;-72
2022/02/24 01:51:43;;;;;;;57.17;21.73;;;;;;;-0.37;68.48;99269.84;5111654;28;20463;-73
2022/02/24 01:54:10;;;;;;;53.30;20.52;;;;;;;-0.40;68.70;99279.16;5111803;28;20028;-72
2022/02/24 01:56:36;;;;;;;53.97;21.05;;;;;;;-0.44;68.18;99269.84;5111378;28;20490;-73
2022/02/24 01:59:03;;;;;;;47.65;19.75;;;;;;;-0.46;68.27;99269.19;5110389;28;20051;-72
2022/02/24 02:01:28;;;;;;;51.63;20.75;;;;;;;-0.47;68.47;99262.16;5111166;28;20035;-72
2022/02/24 02:03:54;;;;;;;53.95;19.75;;;;;;;-0.46;68.18;99269.19;5111140;28;20046;-72
2022/02/24 02:06:22;;;;;;;48.33;20.23;;;;;;;-0.49;68.41;99272.31;5111146;28;20020;-72
2022/02/24 02:08:49;;;;;;;51.70;20.27;;;;;;;-0.51;68.22;99266.28;5110844;28;20032;-71
2022/02/24 02:11:15;;;;;;;51.42;19.38;;;;;;;-0.52;68.33;99273.56;5111205;28;20048;-72
2022/02/24 02:13:41;;;;;;;46.40;19.05;;;;;;;-0.57;68.57;99270.63;5111010;28;20016;-71
2022/02/24 02:16:10;;;;;;;50.88;19.70;;;;;;;-0.61;68.65;99267.50;5075345;28;20751;-71
2022/02/24 02:18:36;;;;;;;49.35;20.98;;;;;;;-0.65;68.79;99274.34;5110516;28;20024;-72
2022/02/24 02:21:02;;;;;;;46.83;18.50;;;;;;;-0.66;68.29;99275.38;5110510;28;20047;-72
2022/02/24 02:23:27;;;;;;;50.22;18.27;;;;;;;-0.70;68.21;99263.34;5110637;28;20471;-72
2022/02/24 02:25:52;;;;;;;42.13;17.58;;;;;;;-0.69;68.93;99267.72;5110980;28;20040;-72
2022/02/24 02:28:19;;;;;;;46.08;17.65;;;;;;;-0.71;68.63;99272.47;5110436;28;20024;-72
2022/02/24 02:30:45;;;;;;;42.63;17.10;;;;;;;-0.72;68.73;99267.25;5110374;28;20027;-72
2022/02/24 02:33:10;;;;;;;44.13;17.27;;;;;;;-0.72;68.96;99265.41;5110242;28;20356;-72
2022/02/24 02:35:37;;;;;;;43.60;16.45;;;;;;;-0.70;68.94;99265.19;5111043;28;20023;-72
2022/02/24 02:38:03;;;;;;;45.83;17.98;;;;;;;-0.71;68.64;99260.84;5110167;28;20012;-72
2022/02/24 02:40:29;;;;;;;47.22;17.50;;;;;;;-0.67;69.01;99264.81;5091845;28;20118;-72
2022/02/24 02:42:55;;;;;;;46.25;17.42;;;;;;;-0.64;69.42;99253.63;5110249;28;20088;-71
2022/02/24 02:45:20;;;;;;;43.40;17.92;;;;;;;-0.65;68.97;99250.09;5110042;28;20022;-71
2022/02/24 02:47:46;;;;;;;43.30;17.77;;;;;;;-0.67;68.93;99245.94;5110033;28;20019;-71
2022/02/24 02:50:12;;;;;;;41.92;18.35;;;;;;;-0.67;68.79;99244.09;5109749;28;20480;-71
2022/02/24 02:52:38;;;;;;;42.38;18.23;;;;;;;-0.68;68.91;99250.50;5110421;28;20069;-71
2022/02/24 02:55:06;;;;;;;41.80;16.88;;;;;;;-0.67;69.08;99241.41;5110089;28;20029;-73
2022/02/24 02:57:32;;;;;;;43.95;17.85;;;;;;;-0.68;69.05;99242.44;5109432;28;20054;-73
2022/02/24 02:59:58;;;;;;;46.03;18.42;;;;;;;-0.66;68.72;99237.66;5108387;28;20094;-73
2022/02/24 03:02:24;;;;;;;42.35;16.88;;;;;;;-0.63;68.77;99229.19;5108504;28;20643;-73
2022/02/24 03:04:50;;;;;;;51.38;19.45;;;;;;;-0.60;68.82;99228.75;5109908;28;20043;-74
2022/02/24 03:07:17;;;;;;;51.10;21.48;;;;;;;-0.55;68.76;99230.00;5109065;28;20416;-73
2022/02/24 03:09:44;;;;;;;41.00;17.33;;;;;;;-0.55;68.74;99220.06;5109538;28;20051;-73
2022/02/24 03:12:09;;;;;;;47.42;17.52;;;;;;;-0.58;68.48;99220.47;5109603;28;20019;-73
2022/02/24 03:14:35;;;;;;;45.58;18.58;;;;;;;-0.61;68.78;99224.38;5109369;28;20085;-73
2022/02/24 03:17:01;;;;;;;42.75;16.70;;;;;;;-0.63;68.37;99225.63;5109232;28;20114;-73
2022/02/24 03:19:26;;;;;;;46.47;16.85;;;;;;;-0.63;68.86;99220.25;5091220;28;20098;-74
2022/02/24 03:21:51;;;;;;;40.30;17.75;;;;;;;-0.64;68.47;99219.44;5110010;28;20037;-74
2022/02/24 03:24:17;;;;;;;44.78;16.50;;;;;;;-0.68;68.60;99211.94;5109266;28;20459;-73
2022/02/24 03:26:42;;;;;;;40.90;15.88;;;;;;;-0.74;68.49;99216.31;5090180;28;20103;-74
2022/02/24 03:29:08;;;;;;;43.35;16.20;;;;;;;-0.76;68.65;99218.38;5109366;28;20020;-73
2022/02/24 03:31:34;;;;;;;34.38;14.90;;;;;;;-0.76;68.50;99212.97;5108952;28;20043;-73
2022/02/24 03:33:59;;;;;;;37.75;15.05;;;;;;;-0.77;69.00;99216.72;5109460;28;20023;-74
2022/02/24 03:36:24;;;;;;;39.80;15.48;;;;;;;-0.76;68.74;99213.78;5109081;28;20023;-73
2022/02/24 03:38:50;;;;;;;38.45;15.05;;;;;;;-0.76;68.84;99204.91;5109246;28;20031;-74
2022/02/24 03:41:15;;;;;;;35.85;14.93;;;;;;;-0.81;68.82;99196.59;5107338;28;20058;-73
2022/02/24 03:43:40;;;;;;;35.00;15.23;;;;;;;-0.88;68.98;99199.28;5108395;28;20039;-73
2022/02/24 03:46:06;;;;;;;41.13;16.98;;;;;;;-0.93;68.94;99199.88;5109108;28;20467;-72
2022/02/24 03:48:31;;;;;;;39.95;15.43;;;;;;;-0.97;68.98;99200.50;5107940;28;20027;-72
2022/02/24 03:50:58;;;;;;;37.42;16.95;;;;;;;-0.98;68.94;99196.13;5108607;28;20016;-73
2022/02/24 03:53:24;;;;;;;41.67;15.73;;;;;;;-1.01;69.06;99199.22;5109225;28;20027;-73
2022/02/24 03:55:49;;;;;;;40.60;15.80;;;;;;;-1.07;69.25;99190.94;5108868;28;20080;-73
2022/02/24 03:58:15;;;;;;;36.20;15.20;;;;;;;-1.10;68.96;99190.50;5108492;28;20625;-73
2022/02/24 04:00:40;;;;;;;36.58;15.15;;;;;;;-1.07;69.40;99200.88;5108761;28;20042;-73
2022/02/24 04:03:06;;;;;;;34.45;14.13;;;;;;;-1.07;69.26;99199.00;5108389;28;20016;-73
2022/02/24 04:05:31;;;;;;;36.28;15.93;;;;;;;-1.08;69.48;99207.28;5108877;28;20015;-73
2022/02/24 04:07:57;;;;;;;41.53;18.50;;;;;;;-1.11;69.26;99197.75;5108676;28;20095;-72
2022/02/24 04:10:22;;;;;;;34.25;16.38;;;;;;;-1.08;69.49;99205.41;5108371;28;20024;-73
2022/02/24 04:12:47;;;;;;;37.63;15.85;;;;;;;-1.10;69.42;99190.50;5108818;28;20019;-73
2022/02/24 04:15:13;;;;;;;33.78;13.38;;;;;;;-1.09;69.76;99194.88;5108649;28;20094;-73
2022/02/24 04:17:38;;;;;;;30.88;12.38;;;;;;;-1.12;69.37;99189.88;5108127;28;20016;-73
2022/02/24 04:20:04;;;;;;;29.52;12.68;;;;;;;-1.14;69.64;99191.94;5107983;28;20349;-73
2022/02/24 04:22:29;;;;;;;30.73;12.43;;;;;;;-1.14;69.78;99184.69;5090213;28;20023;-73
2022/02/24 04:24:57;;;;;;;32.53;12.95;;;;;;;-1.13;69.85;99185.53;5108601;28;20030;-73
2022/02/24 04:27:22;;;;;;;27.05;12.55;;;;;;;-1.13;70.26;99186.34;5108251;28;20012;-73
2022/02/24 04:29:49;;;;;;;36.92;13.85;;;;;;;-1.13;70.18;99180.16;5108525;28;20073;-73
2022/02/24 04:32:14;;;;;;;27.85;13.07;;;;;;;-1.13;70.07;99175.56;5108529;28;20091;-73
2022/02/24 04:34:40;;;;;;;38.70;17.10;;;;;;;-1.15;69.95;99179.53;5109586;28;20070;-73
2022/02/24 04:37:05;;;;;;;36.60;16.05;;;;;;;-1.17;70.00;99173.50;5109405;28;20043;-73
2022/02/24 04:39:31;;;;;;;33.38;15.07;;;;;;;-1.20;70.10;99174.72;5109102;28;20018;-73
2022/02/24 04:41:56;;;;;;;32.22;14.18;;;;;;;-1.20;70.05;99167.50;5109354;28;20027;-73
2022/02/24 04:44:21;;;;;;;33.85;12.88;;;;;;;-1.17;70.07;99166.25;5109297;28;20114;-73
2022/02/24 04:46:47;;;;;;;33.90;12.68;;;;;;;-1.15;70.10;99163.38;5108894;28;20022;-73
2022/02/24 04:49:12;;;;;;;32.38;12.45;;;;;;;-1.13;69.91;99170.19;5109099;28;20067;-73
2022/02/24 04:51:38;;;;;;;28.48;12.43;;;;;;;-1.14;70.06;99165.03;5109163;28;20072;-72
2022/02/24 04:54:03;;;;;;;34.53;14.18;;;;;;;-1.15;69.90;99160.69;5108746;28;20468;-73
2022/02/24 04:56:29;;;;;;;32.70;12.60;;;;;;;-1.14;70.15;99163.16;5108858;28;20031;-73
2022/02/24 04:58:55;;;;;;;34.03;13.23;;;;;;;-1.15;69.83;99172.25;5108866;28;20103;-73
2022/02/24 05:01:20;;;;;;;33.10;13.35;;;;;;;-1.21;69.92;99164.97;5110529;28;20103;-73
2022/02/24 05:03:46;;;;;;;35.42;15.52;;;;;;;-1.25;70.21;99167.25;5113296;28;20463;-73
2022/02/24 05:06:12;;;;;;;32.17;14.93;;;;;;;-1.31;69.81;99164.56;5113158;28;20407;-73
2022/02/24 05:08:38;;;;;;;33.25;13.98;;;;;;;-1.31;70.21;99162.69;5113205;28;20080;-73
2022/02/24 05:11:03;;;;;;;33.83;13.63;;;;;;;-1.32;70.29;99166.41;5113365;28;20167;-73
2022/02/24 05:13:28;;;;;;;27.30;13.40;;;;;;;-1.33;70.16;99170.13;5113707;28;20028;-73
2022/02/24 05:15:55;;;;;;;33.05;14.50;;;;;;;-1.31;70.24;99159.19;5113420;28;20028;-73
2022/02/24 05:18:20;;;;;;;34.80;13.80;;;;;;;-1.25;70.62;99156.50;5112403;28;20023;-72
2022/02/24 05:20:45;;;;;;;32.13;13.95;;;;;;;-1.18;70.54;99153.81;5113002;28;20102;-73
2022/02/24 05:23:11;;;;;;;34.58;13.25;;;;;;;-1.13;70.41;99150.53;5112715;28;20072;-73
2022/02/24 05:25:37;;;;;;;32.08;13.88;;;;;;;-1.10;70.60;99150.13;5093097;28;20078;-73
2022/02/24 05:28:07;;;;;;;37.85;14.63;;;;;;;-1.09;70.27;99149.91;5092500;28;20028;-72
2022/02/24 05:30:32;;;;;;;38.75;15.73;;;;;;;-1.08;70.38;99148.06;5110470;28;20020;-73
2022/02/24 05:32:57;;;;;;;46.83;19.38;;;;;;;-1.10;70.23;99150.13;5112703;28;20568;-73
2022/02/24 05:35:23;;;;;;;43.67;20.05;;;;;;;-1.10;70.02;99150.13;5113311;28;20024;-73
2022/02/24 05:37:48;;;;;;;47.53;19.50;;;;;;;-1.07;70.38;99147.84;5112454;28;20042;-74
2022/02/24 05:40:14;;;;;;;48.65;20.58;;;;;;;-1.03;70.35;99150.97;5112598;28;20063;-74
2022/02/24 05:42:40;;;;;;;43.10;19.75;;;;;;;-0.97;70.06;99144.75;5112238;28;20031;-73
2022/02/24 05:45:06;;;;;;;47.33;19.85;;;;;;;-0.99;70.32;99144.13;5112250;28;20395;-73
2022/02/24 05:47:31;;;;;;;48.17;19.48;;;;;;;-0.98;70.23;99143.09;5111532;28;20035;-73
2022/02/24 05:49:56;;;;;;;38.47;16.63;;;;;;;-0.98;70.21;99142.28;5111619;28;20015;-75
2022/02/24 05:52:22;;;;;;;44.35;19.17;;;;;;;-0.99;70.03;99135.25;5107942;28;20518;-74
2022/02/24 05:54:47;;;;;;;41.33;16.92;;;;;;;-0.99;70.16;99146.81;5111290;28;20019;-74
2022/02/24 05:57:13;;;;;;;47.67;19.40;;;;;;;-0.97;70.25;99136.69;5110828;28;20046;-74
2022/02/24 05:59:38;;;;;;;47.63;18.13;;;;;;;-0.94;70.20;99138.97;5111931;28;20084;-74
2022/02/24 06:02:04;;;;;;;43.13;17.95;;;;;;;-0.90;70.15;99139.41;5111744;28;20558;-73
2022/02/24 06:04:29;;;;;;;48.47;19.30;;;;;;;-0.85;70.30;99134.25;5111991;28;20019;-74
2022/02/24 06:06:55;;;;;;;45.47;18.50;;;;;;;-0.81;70.12;99127.38;5111611;28;20024;-71
2022/02/24 06:09:20;;;;;;;39.28;16.48;;;;;;;-0.77;70.36;99128.63;5093374;28;20020;-71
2022/02/24 06:11:49;;;;;;;42.05;17.90;;;;;;;-0.73;70.13;99133.59;5111365;28;20089;-71
2022/02/24 06:14:16;;;;;;;44.13;18.48;;;;;;;-0.71;70.24;99124.31;5111846;28;20012;-72
2022/02/24 06:16:41;;;;;;;49.42;18.85;;;;;;;-0.68;70.07;99114.97;5111770;28;20031;-72
2022/02/24 06:19:06;;;;;;;45.72;19.88;;;;;;;-0.64;70.06;99114.38;5111345;28;20016;-72
2022/02/24 06:21:32;;;;;;;53.13;26.92;;;;;;;-0.60;69.88;99107.50;5091861;28;20492;-72
2022/02/24 06:23:57;;;;;;;51.60;24.42;;;;;;;-0.57;70.01;99100.03;5110893;28;20035;-71
2022/02/24 06:26:23;;;;;;;54.72;25.67;;;;;;;-0.56;69.91;99093.63;5111130;28;20020;-72
2022/02/24 06:28:48;;;;;;;55.08;26.50;;;;;;;-0.56;69.75;99096.31;5111342;28;20027;-72
2022/02/24 06:31:14;;;;;;;81.20;36.58;;;;;;;-0.54;70.17;99084.31;5092820;28;20123;-72
2022/02/24 06:33:39;;;;;;;77.90;31.33;;;;;;;-0.50;69.93;99087.41;5111425;28;20107;-72
2022/02/24 06:36:04;;;;;;;54.65;24.33;;;;;;;-0.43;69.92;99082.03;5091936;28;20110;-72
2022/02/24 06:38:30;;;;;;;49.83;21.35;;;;;;;-0.37;70.03;99092.78;5110762;28;20384;-72
2022/02/24 06:40:55;;;;;;;56.35;22.50;;;;;;;-0.33;69.71;99085.94;5109837;28;20038;-72
2022/02/24 06:43:21;;;;;;;55.65;24.80;;;;;;;-0.27;69.86;99088.84;5109053;28;20031;-72
2022/02/24 06:45:46;;;;;;;54.72;23.20;;;;;;;-0.20;70.07;99089.63;5110857;28;20414;-72
2022/02/24 06:48:12;;;;;;;55.90;23.45;;;;;;;-0.13;69.61;99087.75;5092777;28;20023;-72
2022/02/24 06:50:38;;;;;;;44.33;18.67;;;;;;;-0.06;70.04;99091.28;5092986;28;20023;-73
2022/02/24 06:53:04;;;;;;;36.95;15.23;;;;;;;0.01;69.95;99090.44;5111172;28;20031;-72
2022/02/24 06:55:30;;;;;;;44.67;18.17;;;;;;;0.05;69.72;99086.28;5110418;28;20058;-72
2022/02/24 06:57:55;;;;;;;48.25;18.45;;;;;;;0.12;69.66;99077.13;5090804;28;20071;-71
2022/02/24 07:00:22;;;;;;;54.67;20.63;;;;;;;0.14;69.61;99072.34;5110516;28;20027;-72
2022/02/24 07:02:48;;;;;;;67.57;24.67;;;;;;;0.22;69.36;99070.44;5110591;28;20111;-71
2022/02/24 07:05:14;;;;;;;71.25;29.95;;;;;;;0.31;69.33;99069.19;5109725;28;20099;-72
2022/02/24 07:07:39;;;;;;;79.72;42.30;;;;;;;0.40;69.56;99059.81;5109859;27;20024;-73
2022/02/24 07:10:12;;;;;;;52.45;25.05;;;;;;;0.45;69.37;99064.53;5109513;28;20020;-71
2022/02/24 07:12:39;;;;;;;48.00;20.30;;;;;;;0.48;69.83;99064.13;5093100;28;20055;-75
2022/02/24 07:15:05;;;;;;;48.08;19.17;;;;;;;0.50;69.22;99062.03;5111562;28;20019;-72
2022/02/24 07:17:30;;;;;;;39.92;16.00;;;;;;;0.57;69.27;99064.69;5108426;28;20035;-73
2022/02/24 07:19:56;;;;;;;49.72;19.85;;;;;;;0.66;69.60;99065.25;5110453;28;20080;-72
2022/02/24 07:22:21;;;;;;;42.67;15.85;;;;;;;0.76;69.78;99056.69;5110307;28;20034;-72
2022/02/24 07:24:47;;;;;;;37.97;14.85;;;;;;;0.85;69.76;99055.38;5100618;28;20028;-72
2022/02/24 07:27:12;;;;;;;31.67;12.38;;;;;;;0.95;69.37;99054.91;5108202;28;20031;-72
2022/02/24 07:29:38;;;;;;;39.42;15.15;;;;;;;1.00;69.49;99060.50;5107649;28;20032;-72
2022/02/24 07:32:04;;;;;;;39.10;16.80;;;;;;;1.07;69.12;99055.84;5110146;28;20038;-72
2022/02/24 07:34:29;;;;;;;38.22;16.27;;;;;;;1.16;69.16;99059.13;5111140;28;20022;-72
2022/02/24 07:36:56;;;;;;;39.17;16.77;;;;;;;1.25;69.18;99046.16;5093093;28;20547;-71
2022/02/24 07:39:21;;;;;;;45.63;19.27;;;;;;;1.35;69.28;99046.50;5111059;28;20480;-72
2022/02/24 07:41:47;;;;;;;41.75;16.85;;;;;;;1.45;68.65;99035.97;5110939;28;20029;-72
2022/02/24 07:44:14;;;;;;;43.05;19.23;;;;;;;1.51;68.32;99031.59;5111854;27;20019;-72
2022/02/24 07:46:39;;;;;;;57.38;24.92;;;;;;;1.59;68.61;99025.88;5092650;28;20051;-69
2022/02/24 07:49:05;;;;;;;44.17;19.85;;;;;;;1.69;69.06;99021.81;5108409;28;20063;-75
2022/02/24 07:51:30;;;;;;;45.05;17.45;;;;;;;1.82;69.15;99018.19;5109274;28;20157;-75
2022/02/24 07:53:55;;;;;;;39.83;15.13;;;;;;;1.92;68.82;99013.03;5110480;28;20122;-75
2022/02/24 07:56:21;;;;;;;44.55;16.13;;;;;;;2.02;68.59;99013.34;5090342;28;20103;-74
2022/02/24 07:58:46;;;;;;;69.30;26.55;;;;;;;2.10;68.32;99006.78;5110984;28;20460;-72
2022/02/24 08:01:12;;;;;;;37.20;13.82;;;;;;;2.18;67.66;99000.25;5091963;28;20050;-72
2022/02/24 08:03:37;;;;;;;41.20;15.45;;;;;;;2.24;67.23;99004.78;5110991;28;20035;-72
2022/02/24 08:06:03;;;;;;;43.58;16.42;;;;;;;2.31;67.11;98997.34;5110078;28;20554;-71
2022/02/24 08:08:29;;;;;;;41.95;15.63;;;;;;;2.39;67.76;98988.13;5102722;28;20027;-74
2022/02/24 08:10:54;;;;;;;39.28;14.93;;;;;;;2.48;67.47;98988.63;5107853;28;20039;-71
2022/02/24 08:13:20;;;;;;;50.67;17.25;;;;;;;2.57;67.36;98991.81;5103045;27;20032;-70
2022/02/24 08:15:45;;;;;;;47.83;18.33;;;;;;;2.67;67.63;98986.66;5088108;28;20472;-70
2022/02/24 08:18:11;;;;;;;36.47;14.10;;;;;;;2.77;66.63;98980.69;5106806;28;20050;-73
2022/02/24 08:20:36;;;;;;;46.45;18.20;;;;;;;2.86;67.52;98982.00;5108864;28;20016;-69
2022/02/24 08:23:03;;;;;;;44.03;15.43;;;;;;;2.94;66.58;98969.97;5109052;28;20031;-71
2022/02/24 08:25:30;;;;;;;50.75;17.63;;;;;;;3.04;66.67;98969.44;5109058;28;20046;-68
2022/02/24 08:27:55;;;;;;;56.03;18.63;;;;;;;3.12;66.56;98961.78;5108676;28;20027;-73
2022/02/24 08:30:23;;;;;;;104.30;35.25;;;;;;;3.24;66.46;98955.53;5107239;28;20020;-71
2022/02/24 08:32:51;;;;;;;37.03;15.27;;;;;;;3.33;66.78;98956.81;5090800;28;20493;-72
2022/02/24 08:35:18;;;;;;;42.47;17.63;;;;;;;3.45;65.57;98945.13;5113397;27;20441;-71
2022/02/24 08:37:47;;;;;;;31.40;11.77;;;;;;;3.57;65.31;98941.34;5112851;27;20042;-72
2022/02/24 08:40:14;;;;;;;47.87;18.97;;;;;;;3.68;66.21;98928.81;5109853;28;20040;-72
2022/02/24 08:42:39;;;;;;;29.55;12.73;;;;;;;3.80;66.06;98925.25;5108943;28;20024;-71
2022/02/24 08:45:06;;;;;;;33.28;13.95;;;;;;;3.88;65.52;98922.97;5107760;28;20054;-72
2022/02/24 08:47:31;;;;;;;27.25;9.38;;;;;;;3.98;65.13;98918.81;5106354;28;20158;-72
2022/02/24 08:49:56;;;;;;;32.58;12.15;;;;;;;4.09;64.30;98911.69;5109179;28;20503;-72
2022/02/24 08:52:22;;;;;;;25.85;10.40;;;;;;;4.16;64.52;98913.22;5107887;28;20043;-69
2022/02/24 08:54:47;;;;;;;21.50;8.98;;;;;;;4.28;63.78;98906.91;5107775;28;20020;-69
2022/02/24 08:57:13;;;;;;;26.30;9.68;;;;;;;4.37;63.45;98902.72;5107147;28;20047;-69
2022/02/24 08:59:39;;;;;;;18.55;7.47;;;;;;;4.45;63.14;98904.22;5105298;28;20028;-70
2022/02/24 09:02:05;;;;;;;20.73;8.10;;;;;;;4.56;62.28;98888.91;5105794;28;20476;-73
2022/02/24 09:04:30;;;;;;;22.30;9.15;;;;;;;4.66;62.75;98886.38;5106663;28;20085;-70
2022/02/24 09:06:56;;;;;;;20.40;8.45;;;;;;;4.76;62.76;98880.28;5105455;28;20036;-70
2022/02/24 09:09:24;;;;;;;20.35;7.80;;;;;;;4.91;60.93;98866.09;5105198;28;20107;-68
2022/02/24 09:11:50;;;;;;;17.60;7.15;;;;;;;4.99;62.10;98873.00;5105402;28;20420;-67
2022/02/24 09:14:15;;;;;;;29.65;11.32;;;;;;;5.09;61.64;98856.84;5106645;28;20130;-68
2022/02/24 09:16:43;;;;;;;24.05;9.85;;;;;;;5.21;60.78;98864.88;5108778;28;20111;-67
2022/02/24 09:19:09;;;;;;;16.88;6.70;;;;;;;5.32;61.04;98852.25;5107682;28;20127;-70
2022/02/24 09:21:34;;;;;;;14.43;5.45;;;;;;;5.43;60.63;98853.22;5106153;28;20499;-71
2022/02/24 09:24:00;;;;;;;14.48;6.25;;;;;;;5.53;59.85;98849.78;5106900;28;20531;-69
2022/02/24 09:26:25;;;;;;;13.43;4.93;;;;;;;5.65;58.43;98845.06;5108722;28;20020;-70
2022/02/24 09:28:50;;;;;;;9.88;4.20;;;;;;;5.75;57.69;98849.78;5107558;28;20101;-70
2022/02/24 09:31:16;;;;;;;12.07;5.35;;;;;;;5.83;58.25;98835.72;5108283;28;20036;-75
2022/02/24 09:33:41;;;;;;;10.45;4.47;;;;;;;5.92;58.07;98839.63;5106564;28;20066;-71
2022/02/24 09:36:07;;;;;;;9.38;3.70;;;;;;;6.01;56.40;98842.75;5105288;28;20027;-73
2022/02/24 09:38:32;;;;;;;15.38;5.97;;;;;;;6.09;55.69;98838.72;5105959;28;20066;-73
2022/02/24 09:40:59;;;;;;;16.10;6.85;;;;;;;6.20;55.03;98836.91;5108083;28;20027;-71
2022/02/24 09:43:29;;;;;;;12.57;5.30;;;;;;;6.29;56.22;98829.13;5108351;28;20030;-71
2022/02/24 09:46:03;;;;;;;11.73;3.58;;;;;;;6.39;56.97;98821.84;5108865;28;20133;-71
2022/02/24 09:48:31;;;;;;;17.23;5.47;;;;;;;6.50;56.21;98825.47;5111855;28;20110;-71
2022/02/24 09:50:58;;;;;;;13.40;5.00;;;;;;;6.59;56.20;98816.81;5111385;28;20390;-70
2022/02/24 09:53:24;;;;;;;6.68;3.67;;;;;;;6.68;55.75;98815.25;5110291;28;20115;-72
2022/02/24 09:55:50;;;;;;;9.52;4.85;;;;;;;6.77;55.35;98808.22;5111027;28;20027;-72
2022/02/24 09:58:16;;;;;;;12.65;4.65;;;;;;;6.91;54.75;98805.03;5110837;27;20047;-72
2022/02/24 10:00:42;;;;;;;5.82;3.28;;;;;;;6.99;53.50;98804.53;5110507;28;20089;-73
2022/02/24 10:03:29;;;;;;;9.93;3.92;;;;;;;7.06;53.95;98796.13;5110612;28;20430;-73
2022/02/24 10:05:55;;;;;;;11.00;4.75;;;;;;;7.14;54.02;98798.34;5103090;28;20122;-73
2022/02/24 10:08:28;;;;;;;8.82;3.90;;;;;;;7.23;53.53;98794.03;5111588;28;20024;-73
2022/02/24 10:10:54;;;;;;;11.63;3.88;;;;;;;7.32;53.56;98793.53;5105707;28;20143;-72
2022/02/24 10:13:20;;;;;;;8.88;3.25;;;;;;;7.41;52.80;98789.19;5109708;28;20107;-71
2022/02/24 10:15:57;;;;;;;11.68;3.80;;;;;;;7.54;52.58;98793.34;5108146;28;20038;-72
2022/02/24 10:18:25;;;;;;;8.13;3.35;;;;;;;7.67;52.07;98776.44;5111543;28;20027;-72
2022/02/24 10:21:00;;;;;;;12.98;4.68;;;;;;;7.77;52.20;98772.91;5111820;28;20051;-72
2022/02/24 10:23:38;;;;;;;9.45;4.20;;;;;;;7.84;52.42;98772.66;5107854;28;20019;-72
2022/02/24 10:26:15;;;;;;;11.70;4.15;;;;;;;7.87;51.17;98769.38;5092544;28;20023;-71
2022/02/24 10:28:52;;;;;;;11.88;5.30;;;;;;;7.93;51.78;98759.28;5109324;28;20027;-72
2022/02/24 10:31:25;;;;;;;12.70;4.57;;;;;;;8.02;50.08;98769.38;5110659;28;20030;-71
2022/02/24 10:34:15;;;;;;;12.15;5.10;;;;;;;8.13;51.00;98755.75;5111881;27;20485;-73
2022/02/24 10:36:41;;;;;;;11.60;4.35;;;;;;;8.23;47.76;98750.28;5111455;28;20024;-73
2022/02/24 10:39:18;;;;;;;11.75;4.40;;;;;;;8.29;45.58;98751.94;5091962;28;20030;-72
2022/02/24 10:41:46;;;;;;;16.05;6.07;;;;;;;8.32;44.69;98735.00;5110605;28;20048;-72
2022/02/24 10:44:13;;;;;;;12.63;4.60;;;;;;;8.34;45.34;98737.44;5110186;28;20039;-72
2022/02/24 10:46:38;;;;;;;10.10;4.20;;;;;;;8.41;46.84;98731.69;5112628;27;20028;-72
2022/02/24 10:49:04;;;;;;;9.23;4.05;;;;;;;8.49;46.38;98726.53;5111420;27;20020;-74
2022/02/24 10:51:32;;;;;;;16.13;6.70;;;;;;;8.60;44.47;98727.31;5110617;28;20103;-71
2022/02/24 10:54:12;;;;;;;8.57;3.30;;;;;;;8.68;45.73;98722.38;5111624;28;20028;-72
2022/02/24 10:56:39;;;;;;;7.82;3.53;;;;;;;8.72;43.55;98707.06;5093351;28;20645;-72
2022/02/24 10:59:05;;;;;;;6.35;3.60;;;;;;;8.76;44.35;98703.47;5109667;28;20024;-71
2022/02/24 11:01:31;;;;;;;9.23;4.10;;;;;;;8.79;44.57;98702.94;5111468;28;20035;-72
2022/02/24 11:03:59;;;;;;;8.02;3.67;;;;;;;8.83;43.04;98705.13;5111626;28;20027;-73
2022/02/24 11:06:26;;;;;;;9.07;3.63;;;;;;;8.87;42.73;98690.59;5110359;28;20027;-73
2022/02/24 11:08:54;;;;;;;7.78;3.10;;;;;;;8.92;43.02;98698.78;5111584;28;20098;-73
2022/02/24 11:11:28;;;;;;;7.10;3.58;;;;;;;8.95;43.90;98683.75;5111194;28;20039;-72
2022/02/24 11:13:55;;;;;;;8.52;3.40;;;;;;;9.02;44.51;98678.75;5108818;28;20325;-73
2022/02/24 11:16:21;;;;;;;12.30;4.70;;;;;;;9.15;44.68;98673.78;5109157;28;20043;-73
2022/02/24 11:18:47;;;;;;;12.32;4.82;;;;;;;9.25;43.71;98676.47;5108425;28;20024;-72